createdAt,value
2018-10-09T00:02:17.938Z,9.10
2018-10-09T00:04:47.226Z,9.10
2018-10-09T00:07:16.440Z,9.00
2018-10-09T00:09:45.706Z,9.10
2018-10-09T00:12:15.050Z,9.00
2018-10-09T00:14:45.909Z,9.00
2018-10-09T00:17:15.150Z,9.00
2018-10-09T00:19:44.377Z,9.10
2018-10-09T00:22:13.733Z,9.20
2018-10-09T00:24:43.093Z,9.10
2018-10-09T00:27:12.348Z,9.10
2018-10-09T00:29:41.715Z,8.90
2018-10-09T00:32:10.958Z,8.90
2018-10-09T00:34:40.358Z,8.90
2018-10-09T00:37:09.755Z,8.70
2018-10-09T00:39:38.986Z,8.70
2018-10-09T00:42:07.809Z,9.00
2018-10-09T00:44:36.994Z,9.00
2018-10-09T00:47:06.262Z,8.90
2018-10-09T00:49:35.735Z,8.60
2018-10-09T00:52:04.906Z,8.60
2018-10-09T00:54:34.087Z,8.60
2018-10-09T00:57:03.356Z,8.50
2018-10-09T00:59:32.535Z,8.50
2018-10-09T01:02:01.681Z,8.40
2018-10-09T01:04:30.976Z,8.60
2018-10-09T01:06:59.866Z,8.60
2018-10-09T01:09:29.029Z,8.50
2018-10-09T01:11:58.205Z,8.50
2018-10-09T01:14:27.365Z,8.60
2018-10-09T01:16:56.507Z,8.70
2018-10-09T01:19:25.774Z,8.60
2018-10-09T01:21:54.913Z,8.70
2018-10-09T01:24:24.061Z,8.60
2018-10-09T01:26:53.194Z,8.60
2018-10-09T01:29:22.330Z,8.50
2018-10-09T01:31:51.494Z,8.70
2018-10-09T01:34:20.772Z,8.80
2018-10-09T01:36:49.929Z,9.10
2018-10-09T01:39:19.227Z,9.10
2018-10-09T01:41:48.365Z,9.00
2018-10-09T01:44:17.983Z,9.10
2018-10-09T01:46:47.205Z,9.20
2018-10-09T01:49:16.481Z,9.20
2018-10-09T01:51:45.797Z,9.30
2018-10-09T01:54:15.007Z,9.40
2018-10-09T01:56:44.406Z,9.50
2018-10-09T01:59:13.665Z,9.50
2018-10-09T02:01:43.282Z,9.40
2018-10-09T02:04:18.293Z,9.50
2018-10-09T02:06:47.539Z,9.30
2018-10-09T02:09:16.781Z,9.30
2018-10-09T02:11:45.962Z,9.40
2018-10-09T02:14:15.453Z,9.20
2018-10-09T02:16:44.623Z,9.20
2018-10-09T02:19:15.330Z,9.20
2018-10-09T02:21:46.594Z,9.20
2018-10-09T02:24:16.098Z,9.10
2018-10-09T02:26:44.870Z,9.10
2018-10-09T02:29:14.058Z,9.00
2018-10-09T02:31:43.327Z,8.80
2018-10-09T02:34:12.485Z,9.10
2018-10-09T02:36:41.629Z,9.00
2018-10-09T02:39:12.042Z,9.00
2018-10-09T02:41:41.194Z,9.10
2018-10-09T02:44:10.838Z,9.10
2018-10-09T02:46:40.006Z,8.80
2018-10-09T02:49:09.209Z,8.70
2018-10-09T02:51:38.350Z,8.70
2018-10-09T02:54:07.771Z,8.60
2018-10-09T02:56:37.457Z,8.50
2018-10-09T02:59:06.949Z,8.50
2018-10-09T03:01:36.106Z,8.50
2018-10-09T03:04:05.397Z,8.40
2018-10-09T03:06:34.801Z,8.40
2018-10-09T03:09:05.286Z,8.40
2018-10-09T03:11:34.495Z,8.50
2018-10-09T03:14:03.962Z,8.50
2018-10-09T03:16:33.115Z,8.60
2018-10-09T03:19:02.626Z,8.80
2018-10-09T03:21:31.845Z,8.80
2018-10-09T03:24:01.371Z,8.80
2018-10-09T03:26:30.573Z,8.70
2018-10-09T03:28:59.689Z,8.80
2018-10-09T03:31:28.871Z,9.10
2018-10-09T03:33:58.093Z,9.20
2018-10-09T03:36:27.199Z,9.20
2018-10-09T03:38:56.353Z,9.10
2018-10-09T03:41:25.900Z,9.00
2018-10-09T03:43:55.241Z,8.90
2018-10-09T03:46:24.398Z,9.00
2018-10-09T03:48:53.538Z,8.90
2018-10-09T03:51:23.038Z,9.10
2018-10-09T03:53:52.173Z,9.00
2018-10-09T03:56:21.495Z,8.80
2018-10-09T03:58:50.605Z,8.70
2018-10-09T04:01:23.830Z,8.70
2018-10-09T04:03:52.982Z,8.50
2018-10-09T04:06:22.123Z,8.40
2018-10-09T04:08:51.481Z,8.40
2018-10-09T04:11:20.877Z,8.50
2018-10-09T04:13:50.197Z,8.50
2018-10-09T04:16:20.125Z,8.50
2018-10-09T04:18:49.993Z,8.70
2018-10-09T04:21:20.794Z,8.90
2018-10-09T04:23:50.397Z,9.00
2018-10-09T04:26:19.759Z,9.00
2018-10-09T04:28:49.077Z,9.10
2018-10-09T04:31:18.202Z,9.10
2018-10-09T04:33:47.333Z,9.00
2018-10-09T04:36:16.510Z,9.00
2018-10-09T04:38:45.685Z,9.00
2018-10-09T04:41:14.848Z,9.00
2018-10-09T04:43:44.578Z,9.10
2018-10-09T04:46:13.709Z,9.20
2018-10-09T04:48:42.841Z,9.30
2018-10-09T04:51:12.037Z,9.60
2018-10-09T04:53:41.302Z,9.70
2018-10-09T04:56:10.426Z,9.80
2018-10-09T04:58:39.559Z,9.70
2018-10-09T05:01:08.690Z,9.90
2018-10-09T05:03:38.091Z,9.90
2018-10-09T05:06:07.519Z,10.10
2018-10-09T05:08:37.029Z,9.90
2018-10-09T05:11:06.357Z,9.80
2018-10-09T05:13:35.720Z,9.80
2018-10-09T05:16:08.065Z,9.80
2018-10-09T05:18:37.511Z,9.90
2018-10-09T05:21:06.894Z,10.10
2018-10-09T05:23:37.517Z,10.20
2018-10-09T05:26:07.061Z,10.20
2018-10-09T05:28:36.980Z,10.30
2018-10-09T05:31:06.108Z,10.40
2018-10-09T05:33:35.254Z,10.60
2018-10-09T05:36:05.013Z,10.50
2018-10-09T05:38:34.121Z,10.50
2018-10-09T05:41:03.287Z,10.70
2018-10-09T05:43:32.386Z,10.70
2018-10-09T05:46:01.490Z,10.70
2018-10-09T05:48:32.255Z,10.70
2018-10-09T05:51:02.050Z,10.70
2018-10-09T05:53:31.055Z,10.70
2018-10-09T05:56:00.249Z,10.70
2018-10-09T05:58:29.401Z,10.70
2018-10-09T06:00:58.516Z,10.70
2018-10-09T06:03:27.930Z,10.70
2018-10-09T06:05:57.151Z,10.80
2018-10-09T06:08:26.345Z,10.80
2018-10-09T06:10:55.714Z,10.80
2018-10-09T06:13:25.638Z,10.90
2018-10-09T06:15:54.634Z,11.00
2018-10-09T06:18:24.644Z,11.00
2018-10-09T06:20:54.045Z,11.00
2018-10-09T06:23:22.925Z,11.10
2018-10-09T06:25:52.146Z,11.10
2018-10-09T06:28:21.312Z,11.20
2018-10-09T06:30:50.458Z,11.30
2018-10-09T06:33:19.562Z,11.20
2018-10-09T06:35:48.758Z,11.40
2018-10-09T06:38:17.889Z,11.60
2018-10-09T06:40:47.264Z,11.70
2018-10-09T06:43:16.301Z,11.70
2018-10-09T06:45:45.427Z,11.80
2018-10-09T06:48:14.533Z,11.90
2018-10-09T06:50:43.614Z,11.90
2018-10-09T06:53:12.990Z,11.90
2018-10-09T06:55:41.790Z,12.00
2018-10-09T06:58:11.231Z,12.20
2018-10-09T07:00:39.997Z,12.40
2018-10-09T07:03:09.363Z,12.50
2018-10-09T07:05:38.433Z,12.70
2018-10-09T07:08:07.654Z,12.70
2018-10-09T07:10:36.833Z,12.80
2018-10-09T07:13:06.890Z,13.00
2018-10-09T07:15:36.213Z,12.70
2018-10-09T07:18:13.242Z,13.10
2018-10-09T07:20:42.387Z,13.20
2018-10-09T07:23:11.501Z,13.30
2018-10-09T07:25:40.626Z,13.30
2018-10-09T07:28:09.794Z,13.40
2018-10-09T07:30:38.893Z,13.60
2018-10-09T07:33:08.013Z,13.90
2018-10-09T07:35:37.738Z,14.20
2018-10-09T07:38:07.014Z,14.20
2018-10-09T07:40:36.121Z,14.50
2018-10-09T07:43:05.299Z,14.70
2018-10-09T07:45:34.406Z,14.50
2018-10-09T07:48:03.534Z,14.20
2018-10-09T07:50:32.898Z,14.00
2018-10-09T07:53:02.181Z,13.70
2018-10-09T07:55:31.662Z,13.80
2018-10-09T07:58:01.159Z,14.10
2018-10-09T08:00:30.357Z,14.20
2018-10-09T08:02:59.640Z,14.60
2018-10-09T08:05:28.369Z,14.80
2018-10-09T08:07:57.673Z,15.10
2018-10-09T08:10:27.673Z,15.20
2018-10-09T08:12:56.907Z,15.20
2018-10-09T08:15:26.075Z,15.10
2018-10-09T08:17:55.278Z,15.20
2018-10-09T08:20:24.483Z,15.10
2018-10-09T08:22:53.703Z,15.30
2018-10-09T08:25:22.762Z,15.80
2018-10-09T08:27:52.074Z,16.20
2018-10-09T08:30:21.970Z,17.00
2018-10-09T08:32:51.354Z,17.80
2018-10-09T08:35:20.489Z,17.70
2018-10-09T08:37:50.734Z,18.20
2018-10-09T08:40:19.947Z,18.40
2018-10-09T08:42:49.053Z,18.60
2018-10-09T08:45:18.183Z,18.20
2018-10-09T08:47:47.534Z,18.20
2018-10-09T08:50:16.713Z,18.60
2018-10-09T08:52:45.893Z,18.80
2018-10-09T08:55:15.058Z,18.60
2018-10-09T08:57:44.662Z,19.40
2018-10-09T09:00:13.785Z,20.20
2018-10-09T09:02:42.955Z,21.00
2018-10-09T09:05:12.082Z,21.70
2018-10-09T09:07:41.338Z,21.80
2018-10-09T09:10:10.489Z,22.90
2018-10-09T09:12:39.625Z,23.60
2018-10-09T09:15:09.504Z,24.40
2018-10-09T09:17:39.209Z,25.40
2018-10-09T09:20:08.339Z,25.60
2018-10-09T09:22:37.438Z,25.00
2018-10-09T09:25:06.669Z,22.70
2018-10-09T09:27:35.850Z,23.80
2018-10-09T09:30:05.414Z,23.80
2018-10-09T09:32:34.571Z,23.90
2018-10-09T09:35:03.702Z,23.40
2018-10-09T09:37:32.878Z,22.50
2018-10-09T09:40:02.042Z,22.30
2018-10-09T09:42:31.207Z,23.00
2018-10-09T09:45:00.547Z,23.20
2018-10-09T09:47:29.649Z,23.30
2018-10-09T09:49:59.022Z,23.80
2018-10-09T09:52:28.173Z,24.10
2018-10-09T09:54:57.317Z,26.10
2018-10-09T09:57:26.994Z,27.50
2018-10-09T09:59:56.365Z,28.60
2018-10-09T10:02:25.626Z,29.30
2018-10-09T10:04:55.231Z,28.70
2018-10-09T10:07:24.665Z,28.30
2018-10-09T10:09:54.274Z,27.10
2018-10-09T10:12:23.390Z,28.10
2018-10-09T10:14:53.246Z,29.00
2018-10-09T10:17:22.412Z,28.80
2018-10-09T10:19:51.525Z,29.10
2018-10-09T10:22:21.354Z,28.10
2018-10-09T10:24:50.570Z,26.10
2018-10-09T10:27:19.697Z,26.20
2018-10-09T10:29:49.381Z,26.50
2018-10-09T10:32:18.563Z,27.30
2018-10-09T10:34:47.691Z,26.50
2018-10-09T10:37:17.000Z,26.50
2018-10-09T10:39:46.191Z,27.30
2018-10-09T10:42:15.408Z,26.40
2018-10-09T10:44:45.064Z,27.60
2018-10-09T10:47:14.255Z,29.70
2018-10-09T10:49:43.387Z,28.90
2018-10-09T10:52:12.450Z,28.40
2018-10-09T10:54:42.178Z,28.00
2018-10-09T10:57:11.462Z,27.70
2018-10-09T10:59:41.114Z,28.60
2018-10-09T11:02:10.621Z,28.70
2018-10-09T11:04:40.606Z,29.10
2018-10-09T11:07:10.509Z,29.80
2018-10-09T11:09:40.282Z,29.60
2018-10-09T11:12:11.982Z,28.20
2018-10-09T11:14:41.941Z,28.50
2018-10-09T11:17:11.833Z,25.40
2018-10-09T11:19:44.624Z,25.50
2018-10-09T11:22:13.497Z,27.10
2018-10-09T11:24:43.397Z,27.30
2018-10-09T11:27:13.547Z,26.20
2018-10-09T11:29:42.441Z,25.50
2018-10-09T11:32:11.971Z,24.10
2018-10-09T11:34:42.778Z,23.50
2018-10-09T11:37:12.625Z,23.70
2018-10-09T11:39:41.966Z,24.40
2018-10-09T11:42:11.102Z,24.00
2018-10-09T11:44:40.399Z,24.00
2018-10-09T11:47:09.954Z,23.80
2018-10-09T11:49:39.898Z,23.80
2018-10-09T11:52:09.639Z,24.10
2018-10-09T11:54:39.317Z,25.10
2018-10-09T11:57:08.453Z,25.60
2018-10-09T11:59:37.734Z,26.30
2018-10-09T12:02:06.923Z,25.90
2018-10-09T12:04:36.541Z,26.20
2018-10-09T12:07:05.678Z,26.10
2018-10-09T12:09:34.986Z,26.20
2018-10-09T12:12:04.104Z,26.20
2018-10-09T12:14:33.295Z,25.20
2018-10-09T12:17:01.991Z,24.30
2018-10-09T12:19:31.125Z,24.20
2018-10-09T12:22:00.866Z,23.70
2018-10-09T12:24:30.909Z,23.50
2018-10-09T12:27:00.382Z,23.60
2018-10-09T12:29:29.450Z,23.70
2018-10-09T12:31:58.566Z,24.00
2018-10-09T12:34:27.714Z,24.00
2018-10-09T12:36:58.478Z,23.30
2018-10-09T12:39:28.258Z,23.40
2018-10-09T12:41:56.933Z,23.80
2018-10-09T12:44:26.741Z,24.20
2018-10-09T12:46:55.833Z,23.90
2018-10-09T12:49:24.935Z,23.40
2018-10-09T12:51:54.038Z,23.10
2018-10-09T12:54:23.121Z,22.80
2018-10-09T12:56:52.250Z,22.80
2018-10-09T12:59:21.390Z,22.80
2018-10-09T13:01:50.504Z,22.80
2018-10-09T13:04:19.599Z,23.00
2018-10-09T13:06:48.752Z,22.80
2018-10-09T13:09:18.147Z,22.80
2018-10-09T13:11:47.225Z,22.70
2018-10-09T13:14:23.051Z,22.90
2018-10-09T13:16:52.805Z,22.90
2018-10-09T13:19:21.986Z,23.20
2018-10-09T13:21:51.253Z,23.40
2018-10-09T13:24:20.853Z,23.40
2018-10-09T13:26:50.047Z,23.50
2018-10-09T13:29:19.391Z,23.50
2018-10-09T13:31:49.850Z,23.70
2018-10-09T13:34:19.646Z,23.80
2018-10-09T13:36:49.353Z,23.50
2018-10-09T13:39:18.562Z,23.60
2018-10-09T13:41:47.671Z,23.60
2018-10-09T13:44:16.835Z,23.60
2018-10-09T13:46:45.021Z,23.30
2018-10-09T13:49:14.319Z,23.10
2018-10-09T13:51:43.462Z,22.70
2018-10-09T13:54:12.690Z,22.80
2018-10-09T13:56:42.768Z,23.10
2018-10-09T13:59:11.893Z,22.80
2018-10-09T14:01:41.021Z,22.80
2018-10-09T14:04:10.168Z,22.80
2018-10-09T14:06:39.642Z,22.90
2018-10-09T14:09:10.877Z,23.20
2018-10-09T14:11:40.227Z,23.10
2018-10-09T14:14:09.751Z,22.90
2018-10-09T14:16:40.217Z,22.70
2018-10-09T14:19:10.074Z,22.70
2018-10-09T14:21:39.206Z,22.60
2018-10-09T14:24:08.337Z,22.50
2018-10-09T14:26:38.107Z,22.70
2018-10-09T14:29:07.205Z,23.10
2018-10-09T14:31:36.325Z,23.10
2018-10-09T14:34:05.918Z,22.60
2018-10-09T14:36:35.824Z,22.60
2018-10-09T14:39:10.091Z,23.00
2018-10-09T14:41:39.218Z,23.20
2018-10-09T14:44:08.895Z,23.50
2018-10-09T14:46:38.382Z,24.00
2018-10-09T14:49:07.916Z,24.10
2018-10-09T14:51:37.432Z,23.40
2018-10-09T14:54:07.355Z,23.50
2018-10-09T14:56:36.882Z,23.70
2018-10-09T14:59:06.551Z,23.60
2018-10-09T15:01:35.878Z,23.30
2018-10-09T15:04:07.055Z,23.20
2018-10-09T15:06:36.543Z,22.90
2018-10-09T15:09:09.975Z,22.80
2018-10-09T15:11:39.354Z,22.50
2018-10-09T15:14:08.590Z,22.10
2018-10-09T15:16:37.995Z,21.90
2018-10-09T15:19:08.081Z,21.60
2018-10-09T15:21:37.150Z,21.50
2018-10-09T15:24:06.958Z,21.40
2018-10-09T15:26:36.717Z,21.20
2018-10-09T15:29:06.661Z,21.10
2018-10-09T15:31:35.845Z,20.90
2018-10-09T15:34:05.598Z,20.70
2018-10-09T15:36:35.421Z,20.50
2018-10-09T15:39:09.976Z,20.30
2018-10-09T15:41:39.512Z,20.30
2018-10-09T15:44:09.369Z,20.20
2018-10-09T15:46:38.696Z,20.20
2018-10-09T15:49:08.521Z,20.10
2018-10-09T15:51:38.602Z,20.00
2018-10-09T15:54:07.724Z,20.00
2018-10-09T15:56:37.027Z,20.00
2018-10-09T15:59:06.729Z,19.80
2018-10-09T16:01:35.938Z,19.70
2018-10-09T16:04:05.105Z,19.60
2018-10-09T16:06:34.447Z,19.40
2018-10-09T16:09:05.873Z,19.30
2018-10-09T16:11:39.279Z,19.30
2018-10-09T16:14:09.194Z,19.20
2018-10-09T16:16:38.750Z,19.00
2018-10-09T16:19:11.069Z,18.90
2018-10-09T16:21:40.562Z,18.70
2018-10-09T16:24:10.819Z,18.60
2018-10-09T16:26:40.205Z,18.40
2018-10-09T16:29:09.402Z,18.20
2018-10-09T16:31:38.550Z,18.10
2018-10-09T16:34:07.675Z,18.00
2018-10-09T16:36:38.155Z,17.80
2018-10-09T16:39:10.742Z,17.70
2018-10-09T16:41:40.217Z,17.50
2018-10-09T16:44:10.095Z,17.30
2018-10-09T16:46:39.242Z,17.20
2018-10-09T16:49:08.450Z,17.10
2018-10-09T16:51:37.607Z,16.90
2018-10-09T16:54:07.061Z,16.70
2018-10-09T16:56:36.790Z,16.70
2018-10-09T16:59:05.939Z,16.50
2018-10-09T17:01:35.622Z,16.30
2018-10-09T17:04:05.261Z,16.30
2018-10-09T17:06:35.185Z,16.20
2018-10-09T17:09:08.315Z,16.10
2018-10-09T17:11:37.987Z,16.00
2018-10-09T17:14:06.961Z,15.80
2018-10-09T17:16:36.290Z,15.40
2018-10-09T17:19:04.932Z,15.30
2018-10-09T17:21:34.138Z,15.50
2018-10-09T17:24:03.949Z,15.50
2018-10-09T17:26:33.577Z,15.30
2018-10-09T17:29:02.597Z,15.20
2018-10-09T17:31:31.722Z,15.20
2018-10-09T17:34:02.530Z,15.10
2018-10-09T17:36:37.309Z,15.00
2018-10-09T17:39:10.259Z,15.00
2018-10-09T17:41:39.993Z,14.90
2018-10-09T17:44:09.330Z,14.80
2018-10-09T17:46:39.252Z,14.80
2018-10-09T17:49:08.485Z,14.70
2018-10-09T17:51:37.871Z,14.60
2018-10-09T17:54:07.030Z,14.50
2018-10-09T17:56:36.586Z,14.50
2018-10-09T17:59:05.703Z,14.50
2018-10-09T18:01:36.718Z,14.50
2018-10-09T18:04:05.847Z,14.50
2018-10-09T18:06:35.451Z,14.40
2018-10-09T18:09:08.256Z,14.30
2018-10-09T18:11:37.468Z,14.30
2018-10-09T18:14:06.782Z,14.30
2018-10-09T18:16:35.902Z,14.20
2018-10-09T18:19:04.746Z,14.20
2018-10-09T18:21:34.745Z,14.20
2018-10-09T18:24:04.491Z,14.20
2018-10-09T18:26:33.590Z,14.20
2018-10-09T18:29:02.772Z,14.10
2018-10-09T18:31:32.098Z,14.10
2018-10-09T18:34:02.067Z,14.10
2018-10-09T18:36:31.175Z,14.10
2018-10-09T18:39:01.059Z,14.00
2018-10-09T18:41:30.284Z,14.00
2018-10-09T18:43:59.344Z,14.00
2018-10-09T18:46:28.420Z,13.90
2018-10-09T18:48:57.606Z,13.80
2018-10-09T18:51:26.832Z,13.80
2018-10-09T18:53:55.908Z,13.70
2018-10-09T18:56:27.708Z,13.60
2018-10-09T18:58:57.113Z,13.60
2018-10-09T19:01:26.422Z,13.60
2018-10-09T19:03:55.566Z,13.50
2018-10-09T19:06:24.718Z,13.50
2018-10-09T19:08:53.900Z,13.50
2018-10-09T19:11:27.239Z,13.40
2018-10-09T19:13:57.238Z,13.40
2018-10-09T19:16:26.713Z,13.40
2018-10-09T19:18:55.857Z,13.30
2018-10-09T19:21:24.565Z,13.40
2018-10-09T19:23:53.802Z,13.40
2018-10-09T19:26:22.962Z,13.30
2018-10-09T19:28:52.058Z,13.30
2018-10-09T19:31:21.165Z,13.30
2018-10-09T19:33:50.265Z,13.30
2018-10-09T19:36:19.413Z,13.20
2018-10-09T19:38:48.571Z,13.10
2018-10-09T19:41:17.752Z,13.10
2018-10-09T19:43:46.910Z,13.10
2018-10-09T19:46:16.047Z,13.10
2018-10-09T19:48:45.154Z,13.10
2018-10-09T19:51:14.340Z,13.10
2018-10-09T19:53:43.714Z,13.00
2018-10-09T19:56:12.870Z,13.10
2018-10-09T19:58:41.965Z,13.10
2018-10-09T20:01:11.096Z,13.10
2018-10-09T20:03:39.890Z,13.10
2018-10-09T20:06:09.246Z,13.00
2018-10-09T20:08:38.431Z,13.10
2018-10-09T20:11:09.632Z,13.10
2018-10-09T20:13:38.775Z,13.00
2018-10-09T20:16:08.844Z,12.80
2018-10-09T20:18:38.126Z,12.70
2018-10-09T20:21:08.353Z,12.50
2018-10-09T20:23:37.730Z,12.40
2018-10-09T20:26:06.730Z,12.30
2018-10-09T20:28:36.033Z,12.30
2018-10-09T20:31:05.192Z,12.30
2018-10-09T20:33:34.345Z,12.20
2018-10-09T20:36:04.007Z,12.00
2018-10-09T20:38:33.370Z,11.90
2018-10-09T20:41:03.189Z,11.90
2018-10-09T20:43:32.464Z,12.00
2018-10-09T20:46:01.706Z,12.00
2018-10-09T20:48:31.857Z,12.00
2018-10-09T20:51:00.901Z,12.00
2018-10-09T20:53:30.003Z,12.10
2018-10-09T20:55:59.122Z,12.30
2018-10-09T20:58:28.295Z,12.40
2018-10-09T21:00:57.438Z,12.40
2018-10-09T21:03:27.353Z,12.30
2018-10-09T21:05:56.793Z,12.20
2018-10-09T21:08:25.960Z,12.40
2018-10-09T21:10:55.157Z,12.40
2018-10-09T21:13:24.870Z,12.60
2018-10-09T21:15:54.022Z,12.60
2018-10-09T21:18:23.675Z,12.50
2018-10-09T21:20:53.115Z,12.50
2018-10-09T21:23:22.453Z,12.40
2018-10-09T21:25:51.252Z,12.10
2018-10-09T21:28:21.425Z,12.20
2018-10-09T21:30:50.570Z,12.20
2018-10-09T21:33:19.749Z,12.10
2018-10-09T21:35:48.958Z,12.10
2018-10-09T21:38:18.090Z,12.00
2018-10-09T21:40:47.193Z,11.80
2018-10-09T21:43:16.905Z,11.70
2018-10-09T21:45:46.162Z,11.60
2018-10-09T21:48:15.618Z,11.60
2018-10-09T21:50:44.649Z,11.60
2018-10-09T21:53:13.758Z,11.60
2018-10-09T21:55:42.865Z,11.50
2018-10-09T21:58:11.986Z,11.70
2018-10-09T22:00:46.298Z,11.90
2018-10-09T22:03:15.425Z,11.80
2018-10-09T22:05:44.526Z,11.80
2018-10-09T22:08:13.658Z,11.70
2018-10-09T22:10:42.782Z,11.70
2018-10-09T22:13:11.912Z,11.70
2018-10-09T22:15:41.102Z,11.60
2018-10-09T22:18:10.250Z,11.70
2018-10-09T22:20:39.368Z,11.70
2018-10-09T22:23:08.534Z,11.80
2018-10-09T22:25:37.798Z,11.70
2018-10-09T22:28:07.398Z,11.70
2018-10-09T22:30:36.134Z,11.60
2018-10-09T22:33:05.287Z,11.50
2018-10-09T22:35:34.582Z,11.50
2018-10-09T22:38:03.754Z,11.40
2018-10-09T22:40:32.922Z,11.40
2018-10-09T22:43:03.802Z,11.30
2018-10-09T22:45:34.326Z,11.20
2018-10-09T22:48:03.430Z,11.30
2018-10-09T22:50:32.557Z,11.10
2018-10-09T22:53:01.682Z,11.00
2018-10-09T22:55:31.534Z,10.90
2018-10-09T22:58:00.645Z,10.80
2018-10-09T23:00:29.738Z,10.80
2018-10-09T23:02:58.846Z,10.70
2018-10-09T23:05:29.670Z,10.70
2018-10-09T23:07:59.602Z,10.70
2018-10-09T23:10:28.926Z,10.60
2018-10-09T23:12:58.425Z,10.60
2018-10-09T23:15:28.593Z,10.40
2018-10-09T23:17:58.325Z,10.40
2018-10-09T23:20:27.418Z,10.40
2018-10-09T23:22:56.531Z,10.50
2018-10-09T23:25:25.767Z,10.50
2018-10-09T23:27:54.958Z,10.70
2018-10-09T23:30:24.217Z,10.70
2018-10-09T23:32:53.434Z,10.50
2018-10-09T23:35:22.658Z,10.50
2018-10-09T23:37:51.991Z,10.40
2018-10-09T23:40:21.161Z,10.30
2018-10-09T23:42:50.926Z,10.20
2018-10-09T23:45:22.498Z,10.10
2018-10-09T23:47:55.747Z,10.00
2018-10-09T23:50:25.551Z,9.90
2018-10-09T23:52:54.633Z,10.10
2018-10-09T23:55:23.749Z,10.00
2018-10-09T23:57:52.860Z,10.10
